sensor_id;sensor_type;location;lat;lon;timestamp;temperature;humidity
42199;DHT22;27868;45.184;5.786;2023-03-21T00:01:23;10.30;88.60
42199;DHT22;27868;45.184;5.786;2023-03-21T00:04:07;10.20;88.70
42199;DHT22;27868;45.184;5.786;2023-03-21T00:06:52;10.30;88.80
42199;DHT22;27868;45.184;5.786;2023-03-21T00:09:36;10.30;89.10
42199;DHT22;27868;45.184;5.786;2023-03-21T00:12:21;10.30;88.90
42199;DHT22;27868;45.184;5.786;2023-03-21T00:15:06;10.20;88.90
42199;DHT22;27868;45.184;5.786;2023-03-21T00:17:54;10.20;89.70
42199;DHT22;27868;45.184;5.786;2023-03-21T00:20:56;10.20;89.30
42199;DHT22;27868;45.184;5.786;2023-03-21T00:23:45;10.20;89.30
42199;DHT22;27868;45.184;5.786;2023-03-21T00:26:30;10.20;89.60
42199;DHT22;27868;45.184;5.786;2023-03-21T00:29:15;10.10;89.60
42199;DHT22;27868;45.184;5.786;2023-03-21T00:32:00;10.10;90.10
42199;DHT22;27868;45.184;5.786;2023-03-21T00:34:45;10.10;89.90
42199;DHT22;27868;45.184;5.786;2023-03-21T00:37:29;10.10;90.00
42199;DHT22;27868;45.184;5.786;2023-03-21T00:40:14;10.00;90.00
42199;DHT22;27868;45.184;5.786;2023-03-21T00:42:58;10.00;89.90
42199;DHT22;27868;45.184;5.786;2023-03-21T00:45:43;10.00;90.20
42199;DHT22;27868;45.184;5.786;2023-03-21T00:48:28;10.00;90.10
42199;DHT22;27868;45.184;5.786;2023-03-21T00:51:14;10.00;90.10
42199;DHT22;27868;45.184;5.786;2023-03-21T00:54:04;10.00;90.10
42199;DHT22;27868;45.184;5.786;2023-03-21T00:56:49;10.00;90.10
42199;DHT22;27868;45.184;5.786;2023-03-21T00:59:34;10.00;90.10
42199;DHT22;27868;45.184;5.786;2023-03-21T01:02:18;10.00;90.20
42199;DHT22;27868;45.184;5.786;2023-03-21T01:05:06;10.00;90.30
42199;DHT22;27868;45.184;5.786;2023-03-21T01:07:50;9.90;90.40
42199;DHT22;27868;45.184;5.786;2023-03-21T01:10:37;9.90;90.40
42199;DHT22;27868;45.184;5.786;2023-03-21T01:13:23;9.90;90.30
42199;DHT22;27868;45.184;5.786;2023-03-21T01:16:08;9.90;90.30
42199;DHT22;27868;45.184;5.786;2023-03-21T01:18:53;9.90;90.30
42199;DHT22;27868;45.184;5.786;2023-03-21T01:21:38;9.90;90.30
42199;DHT22;27868;45.184;5.786;2023-03-21T01:24:22;9.80;90.50
42199;DHT22;27868;45.184;5.786;2023-03-21T01:27:07;9.80;90.30
42199;DHT22;27868;45.184;5.786;2023-03-21T01:29:51;9.80;90.30
42199;DHT22;27868;45.184;5.786;2023-03-21T01:32:36;9.80;90.30
42199;DHT22;27868;45.184;5.786;2023-03-21T01:35:20;9.80;90.60
42199;DHT22;27868;45.184;5.786;2023-03-21T01:38:05;9.80;90.40
42199;DHT22;27868;45.184;5.786;2023-03-21T01:40:50;9.70;90.40
42199;DHT22;27868;45.184;5.786;2023-03-21T01:43:35;9.70;91.00
42199;DHT22;27868;45.184;5.786;2023-03-21T01:46:20;9.70;90.50
42199;DHT22;27868;45.184;5.786;2023-03-21T01:51:52;9.60;90.50
42199;DHT22;27868;45.184;5.786;2023-03-21T01:54:37;9.60;90.60
42199;DHT22;27868;45.184;5.786;2023-03-21T01:57:26;9.60;90.70
42199;DHT22;27868;45.184;5.786;2023-03-21T02:00:15;9.60;90.60
42199;DHT22;27868;45.184;5.786;2023-03-21T02:03:00;9.60;90.60
42199;DHT22;27868;45.184;5.786;2023-03-21T02:05:57;9.60;90.70
42199;DHT22;27868;45.184;5.786;2023-03-21T02:08:43;9.50;90.60
42199;DHT22;27868;45.184;5.786;2023-03-21T02:11:28;9.50;90.60
42199;DHT22;27868;45.184;5.786;2023-03-21T02:14:15;9.50;90.60
42199;DHT22;27868;45.184;5.786;2023-03-21T02:17:07;9.50;90.60
42199;DHT22;27868;45.184;5.786;2023-03-21T02:28:56;9.50;90.60
42199;DHT22;27868;45.184;5.786;2023-03-21T02:31:51;9.40;90.50
42199;DHT22;27868;45.184;5.786;2023-03-21T02:37:52;9.40;90.50
42199;DHT22;27868;45.184;5.786;2023-03-21T02:40:44;9.40;90.50
42199;DHT22;27868;45.184;5.786;2023-03-21T02:43:36;9.40;90.50
42199;DHT22;27868;45.184;5.786;2023-03-21T02:46:29;9.40;90.60
42199;DHT22;27868;45.184;5.786;2023-03-21T02:49:33;9.30;90.80
42199;DHT22;27868;45.184;5.786;2023-03-21T02:52:22;9.30;90.80
42199;DHT22;27868;45.184;5.786;2023-03-21T02:55:08;9.30;90.80
42199;DHT22;27868;45.184;5.786;2023-03-21T02:57:57;9.10;91.80
42199;DHT22;27868;45.184;5.786;2023-03-21T03:00:42;9.10;91.50
42199;DHT22;27868;45.184;5.786;2023-03-21T03:03:28;9.10;91.30
42199;DHT22;27868;45.184;5.786;2023-03-21T03:06:23;9.20;91.30
42199;DHT22;27868;45.184;5.786;2023-03-21T03:21:08;9.10;91.70
42199;DHT22;27868;45.184;5.786;2023-03-21T03:23:56;9.10;91.70
42199;DHT22;27868;45.184;5.786;2023-03-21T03:26:47;9.10;92.00
42199;DHT22;27868;45.184;5.786;2023-03-21T03:29:35;9.10;91.70
42199;DHT22;27868;45.184;5.786;2023-03-21T03:32:22;9.10;91.70
42199;DHT22;27868;45.184;5.786;2023-03-21T03:35:09;9.10;91.60
42199;DHT22;27868;45.184;5.786;2023-03-21T03:37:55;9.10;91.80
42199;DHT22;27868;45.184;5.786;2023-03-21T03:40:43;9.00;91.60
42199;DHT22;27868;45.184;5.786;2023-03-21T03:43:31;9.00;91.60
42199;DHT22;27868;45.184;5.786;2023-03-21T03:46:20;9.00;91.80
42199;DHT22;27868;45.184;5.786;2023-03-21T03:49:08;9.00;91.90
42199;DHT22;27868;45.184;5.786;2023-03-21T03:51:54;9.00;91.80
42199;DHT22;27868;45.184;5.786;2023-03-21T03:54:42;9.00;91.70
42199;DHT22;27868;45.184;5.786;2023-03-21T03:57:27;9.00;91.80
42199;DHT22;27868;45.184;5.786;2023-03-21T04:00:12;9.00;91.80
42199;DHT22;27868;45.184;5.786;2023-03-21T04:02:59;9.00;91.90
42199;DHT22;27868;45.184;5.786;2023-03-21T04:05:43;9.00;91.80
42199;DHT22;27868;45.184;5.786;2023-03-21T04:08:29;9.00;91.80
42199;DHT22;27868;45.184;5.786;2023-03-21T04:11:14;9.00;91.90
42199;DHT22;27868;45.184;5.786;2023-03-21T04:14:01;8.90;91.80
42199;DHT22;27868;45.184;5.786;2023-03-21T04:16:46;8.90;91.70
42199;DHT22;27868;45.184;5.786;2023-03-21T04:19:30;8.90;91.70
42199;DHT22;27868;45.184;5.786;2023-03-21T04:22:15;8.90;91.60
42199;DHT22;27868;45.184;5.786;2023-03-21T04:25:00;8.90;91.60
42199;DHT22;27868;45.184;5.786;2023-03-21T04:27:45;8.80;91.60
42199;DHT22;27868;45.184;5.786;2023-03-21T04:30:31;8.90;91.60
42199;DHT22;27868;45.184;5.786;2023-03-21T04:33:17;8.80;91.70
42199;DHT22;27868;45.184;5.786;2023-03-21T04:36:04;8.80;91.80
42199;DHT22;27868;45.184;5.786;2023-03-21T04:38:49;8.80;92.20
42199;DHT22;27868;45.184;5.786;2023-03-21T04:41:34;8.80;91.70
42199;DHT22;27868;45.184;5.786;2023-03-21T04:44:20;8.80;91.70
42199;DHT22;27868;45.184;5.786;2023-03-21T04:47:05;8.80;91.60
42199;DHT22;27868;45.184;5.786;2023-03-21T04:49:49;8.80;91.70
42199;DHT22;27868;45.184;5.786;2023-03-21T04:52:34;8.70;91.60
42199;DHT22;27868;45.184;5.786;2023-03-21T04:55:19;8.70;91.60
42199;DHT22;27868;45.184;5.786;2023-03-21T04:58:04;8.70;91.70
42199;DHT22;27868;45.184;5.786;2023-03-21T05:00:49;8.70;91.70
42199;DHT22;27868;45.184;5.786;2023-03-21T05:03:36;8.60;91.50
42199;DHT22;27868;45.184;5.786;2023-03-21T05:06:23;8.70;91.60
42199;DHT22;27868;45.184;5.786;2023-03-21T05:09:09;8.60;91.70
42199;DHT22;27868;45.184;5.786;2023-03-21T05:11:54;8.60;91.80
42199;DHT22;27868;45.184;5.786;2023-03-21T05:14:38;8.60;91.50
42199;DHT22;27868;45.184;5.786;2023-03-21T05:17:23;8.60;91.50
42199;DHT22;27868;45.184;5.786;2023-03-21T05:20:09;8.60;91.50
42199;DHT22;27868;45.184;5.786;2023-03-21T05:22:54;8.50;91.40
42199;DHT22;27868;45.184;5.786;2023-03-21T05:25:39;8.50;91.40
42199;DHT22;27868;45.184;5.786;2023-03-21T05:28:23;8.50;91.30
42199;DHT22;27868;45.184;5.786;2023-03-21T05:31:14;8.50;91.50
42199;DHT22;27868;45.184;5.786;2023-03-21T05:33:59;8.50;91.50
42199;DHT22;27868;45.184;5.786;2023-03-21T05:36:44;8.40;91.80
42199;DHT22;27868;45.184;5.786;2023-03-21T05:39:28;8.40;91.70
42199;DHT22;27868;45.184;5.786;2023-03-21T05:42:13;8.40;91.70
42199;DHT22;27868;45.184;5.786;2023-03-21T05:44:57;8.40;91.60
42199;DHT22;27868;45.184;5.786;2023-03-21T05:47:42;8.40;91.70
42199;DHT22;27868;45.184;5.786;2023-03-21T05:50:26;8.30;91.70
42199;DHT22;27868;45.184;5.786;2023-03-21T05:53:12;8.30;91.90
42199;DHT22;27868;45.184;5.786;2023-03-21T05:55:57;8.30;91.80
42199;DHT22;27868;45.184;5.786;2023-03-21T05:58:41;8.30;91.90
42199;DHT22;27868;45.184;5.786;2023-03-21T06:01:26;8.30;91.80
42199;DHT22;27868;45.184;5.786;2023-03-21T06:04:10;8.30;91.90
42199;DHT22;27868;45.184;5.786;2023-03-21T06:06:55;8.30;91.90
42199;DHT22;27868;45.184;5.786;2023-03-21T06:09:39;8.30;92.00
42199;DHT22;27868;45.184;5.786;2023-03-21T06:12:24;8.30;91.80
42199;DHT22;27868;45.184;5.786;2023-03-21T06:15:08;8.30;92.00
42199;DHT22;27868;45.184;5.786;2023-03-21T06:17:53;8.30;91.90
42199;DHT22;27868;45.184;5.786;2023-03-21T06:20:38;8.30;92.20
42199;DHT22;27868;45.184;5.786;2023-03-21T06:23:22;8.30;92.00
42199;DHT22;27868;45.184;5.786;2023-03-21T06:26:07;8.20;92.10
42199;DHT22;27868;45.184;5.786;2023-03-21T06:28:51;8.30;92.40
42199;DHT22;27868;45.184;5.786;2023-03-21T06:31:36;8.20;92.10
42199;DHT22;27868;45.184;5.786;2023-03-21T06:34:21;8.30;92.20
42199;DHT22;27868;45.184;5.786;2023-03-21T06:37:05;8.30;92.50
42199;DHT22;27868;45.184;5.786;2023-03-21T06:39:50;8.20;92.50
42199;DHT22;27868;45.184;5.786;2023-03-21T06:42:34;8.20;92.70
42199;DHT22;27868;45.184;5.786;2023-03-21T06:45:19;8.20;92.80
42199;DHT22;27868;45.184;5.786;2023-03-21T06:48:04;8.20;92.80
42199;DHT22;27868;45.184;5.786;2023-03-21T06:50:49;8.20;92.90
42199;DHT22;27868;45.184;5.786;2023-03-21T06:53:33;8.30;93.00
42199;DHT22;27868;45.184;5.786;2023-03-21T06:56:18;8.30;93.00
42199;DHT22;27868;45.184;5.786;2023-03-21T06:59:03;8.30;93.00
42199;DHT22;27868;45.184;5.786;2023-03-21T07:01:47;8.40;93.00
42199;DHT22;27868;45.184;5.786;2023-03-21T07:04:32;8.40;93.10
42199;DHT22;27868;45.184;5.786;2023-03-21T07:07:16;8.40;93.40
42199;DHT22;27868;45.184;5.786;2023-03-21T07:10:01;8.40;93.30
42199;DHT22;27868;45.184;5.786;2023-03-21T07:12:45;8.50;93.20
42199;DHT22;27868;45.184;5.786;2023-03-21T07:15:30;8.50;93.30
42199;DHT22;27868;45.184;5.786;2023-03-21T07:18:14;8.60;93.40
42199;DHT22;27868;45.184;5.786;2023-03-21T07:20:59;8.60;93.80
42199;DHT22;27868;45.184;5.786;2023-03-21T07:23:43;8.60;93.50
42199;DHT22;27868;45.184;5.786;2023-03-21T07:26:28;8.60;93.50
42199;DHT22;27868;45.184;5.786;2023-03-21T07:29:12;8.70;93.70
42199;DHT22;27868;45.184;5.786;2023-03-21T07:31:57;8.70;93.70
42199;DHT22;27868;45.184;5.786;2023-03-21T07:34:41;8.70;94.70
42199;DHT22;27868;45.184;5.786;2023-03-21T07:37:26;8.70;94.90
42199;DHT22;27868;45.184;5.786;2023-03-21T07:40:10;9.10;94.70
42199;DHT22;27868;45.184;5.786;2023-03-21T07:42:56;8.80;94.60
42199;DHT22;27868;45.184;5.786;2023-03-21T07:45:40;8.80;94.50
42199;DHT22;27868;45.184;5.786;2023-03-21T07:48:26;8.90;94.60
42199;DHT22;27868;45.184;5.786;2023-03-21T07:51:11;8.90;94.60
42199;DHT22;27868;45.184;5.786;2023-03-21T07:53:55;9.00;94.50
42199;DHT22;27868;45.184;5.786;2023-03-21T07:56:40;9.00;94.50
42199;DHT22;27868;45.184;5.786;2023-03-21T07:59:24;9.10;94.50
42199;DHT22;27868;45.184;5.786;2023-03-21T08:02:11;9.20;94.70
42199;DHT22;27868;45.184;5.786;2023-03-21T08:04:56;9.20;94.70
42199;DHT22;27868;45.184;5.786;2023-03-21T08:07:42;9.30;94.60
42199;DHT22;27868;45.184;5.786;2023-03-21T08:10:26;9.30;94.60
42199;DHT22;27868;45.184;5.786;2023-03-21T08:13:11;9.30;94.60
42199;DHT22;27868;45.184;5.786;2023-03-21T08:15:55;9.40;94.60
42199;DHT22;27868;45.184;5.786;2023-03-21T08:18:40;9.40;94.80
42199;DHT22;27868;45.184;5.786;2023-03-21T08:21:25;9.50;94.60
42199;DHT22;27868;45.184;5.786;2023-03-21T08:24:10;9.60;94.60
42199;DHT22;27868;45.184;5.786;2023-03-21T08:26:55;9.60;94.50
42199;DHT22;27868;45.184;5.786;2023-03-21T08:29:40;9.60;94.50
42199;DHT22;27868;45.184;5.786;2023-03-21T08:32:26;9.70;94.50
42199;DHT22;27868;45.184;5.786;2023-03-21T08:35:15;9.80;94.80
42199;DHT22;27868;45.184;5.786;2023-03-21T08:38:03;9.80;94.50
42199;DHT22;27868;45.184;5.786;2023-03-21T08:40:49;9.90;94.70
42199;DHT22;27868;45.184;5.786;2023-03-21T08:43:33;9.90;94.50
42199;DHT22;27868;45.184;5.786;2023-03-21T08:46:18;10.00;94.70
42199;DHT22;27868;45.184;5.786;2023-03-21T08:49:02;10.10;94.40
42199;DHT22;27868;45.184;5.786;2023-03-21T08:51:47;10.20;94.40
42199;DHT22;27868;45.184;5.786;2023-03-21T08:54:31;10.20;94.70
42199;DHT22;27868;45.184;5.786;2023-03-21T08:57:16;10.30;94.70
42199;DHT22;27868;45.184;5.786;2023-03-21T09:00:01;10.40;94.50
42199;DHT22;27868;45.184;5.786;2023-03-21T09:02:50;10.40;94.70
42199;DHT22;27868;45.184;5.786;2023-03-21T09:05:37;10.50;95.20
42199;DHT22;27868;45.184;5.786;2023-03-21T09:08:22;10.50;94.60
42199;DHT22;27868;45.184;5.786;2023-03-21T09:11:07;10.60;94.40
42199;DHT22;27868;45.184;5.786;2023-03-21T09:13:52;10.70;94.30
42199;DHT22;27868;45.184;5.786;2023-03-21T09:16:36;10.80;94.60
42199;DHT22;27868;45.184;5.786;2023-03-21T09:19:21;10.90;94.40
42199;DHT22;27868;45.184;5.786;2023-03-21T09:22:05;10.90;94.00
42199;DHT22;27868;45.184;5.786;2023-03-21T09:24:54;11.00;94.00
42199;DHT22;27868;45.184;5.786;2023-03-21T09:27:40;11.10;93.90
42199;DHT22;27868;45.184;5.786;2023-03-21T09:30:26;11.10;94.00
42199;DHT22;27868;45.184;5.786;2023-03-21T09:33:12;11.20;94.20
42199;DHT22;27868;45.184;5.786;2023-03-21T09:36:02;11.30;93.70
42199;DHT22;27868;45.184;5.786;2023-03-21T09:38:50;11.30;93.50
42199;DHT22;27868;45.184;5.786;2023-03-21T09:41:56;11.40;93.30
42199;DHT22;27868;45.184;5.786;2023-03-21T09:47:29;11.50;93.00
42199;DHT22;27868;45.184;5.786;2023-03-21T09:53:23;11.60;93.10
42199;DHT22;27868;45.184;5.786;2023-03-21T09:56:09;11.60;92.80
42199;DHT22;27868;45.184;5.786;2023-03-21T09:58:56;11.70;92.50
42199;DHT22;27868;45.184;5.786;2023-03-21T10:01:42;11.70;92.60
42199;DHT22;27868;45.184;5.786;2023-03-21T10:04:28;11.80;92.60
42199;DHT22;27868;45.184;5.786;2023-03-21T10:10:49;11.80;92.70
42199;DHT22;27868;45.184;5.786;2023-03-21T10:13:35;11.90;92.80
42199;DHT22;27868;45.184;5.786;2023-03-21T10:19:32;12.00;92.10
42199;DHT22;27868;45.184;5.786;2023-03-21T10:22:17;12.10;92.10
42199;DHT22;27868;45.184;5.786;2023-03-21T10:25:02;12.10;91.80
42199;DHT22;27868;45.184;5.786;2023-03-21T10:27:47;12.20;91.70
42199;DHT22;27868;45.184;5.786;2023-03-21T10:30:40;12.20;91.70
42199;DHT22;27868;45.184;5.786;2023-03-21T10:36:55;12.30;90.10
42199;DHT22;27868;45.184;5.786;2023-03-21T10:39:40;12.40;91.00
42199;DHT22;27868;45.184;5.786;2023-03-21T10:42:32;12.50;91.00
42199;DHT22;27868;45.184;5.786;2023-03-21T10:48:28;12.60;91.10
42199;DHT22;27868;45.184;5.786;2023-03-21T10:54:44;12.80;89.50
42199;DHT22;27868;45.184;5.786;2023-03-21T10:57:29;12.80;89.20
42199;DHT22;27868;45.184;5.786;2023-03-21T11:00:18;12.80;88.40
42199;DHT22;27868;45.184;5.786;2023-03-21T11:03:04;12.90;87.10
42199;DHT22;27868;45.184;5.786;2023-03-21T11:05:52;12.90;87.80
42199;DHT22;27868;45.184;5.786;2023-03-21T11:08:43;13.10;85.20
42199;DHT22;27868;45.184;5.786;2023-03-21T11:11:33;13.10;84.40
42199;DHT22;27868;45.184;5.786;2023-03-21T11:14:32;13.20;86.10
42199;DHT22;27868;45.184;5.786;2023-03-21T11:17:18;13.20;86.00
42199;DHT22;27868;45.184;5.786;2023-03-21T11:20:04;13.40;86.90
42199;DHT22;27868;45.184;5.786;2023-03-21T11:22:53;13.50;86.80
42199;DHT22;27868;45.184;5.786;2023-03-21T11:25:40;13.60;86.70
42199;DHT22;27868;45.184;5.786;2023-03-21T11:28:25;13.70;86.20
42199;DHT22;27868;45.184;5.786;2023-03-21T11:31:16;13.70;85.60
42199;DHT22;27868;45.184;5.786;2023-03-21T11:34:01;13.90;84.60
42199;DHT22;27868;45.184;5.786;2023-03-21T11:36:49;14.00;86.30
42199;DHT22;27868;45.184;5.786;2023-03-21T11:39:37;14.10;86.30
42199;DHT22;27868;45.184;5.786;2023-03-21T11:42:32;14.20;82.20
42199;DHT22;27868;45.184;5.786;2023-03-21T11:48:11;14.40;81.40
42199;DHT22;27868;45.184;5.786;2023-03-21T11:50:58;14.50;83.20
42199;DHT22;27868;45.184;5.786;2023-03-21T11:56:33;14.80;80.00
42199;DHT22;27868;45.184;5.786;2023-03-21T12:05:18;15.10;78.90
42199;DHT22;27868;45.184;5.786;2023-03-21T12:08:11;15.20;76.70
42199;DHT22;27868;45.184;5.786;2023-03-21T12:25:52;16.00;79.80
42199;DHT22;27868;45.184;5.786;2023-03-21T12:34:47;16.50;76.60
42199;DHT22;27868;45.184;5.786;2023-03-21T12:45:54;17.00;69.00
42199;DHT22;27868;45.184;5.786;2023-03-21T12:48:42;17.10;73.50
42199;DHT22;27868;45.184;5.786;2023-03-21T12:51:32;17.20;69.90
42199;DHT22;27868;45.184;5.786;2023-03-21T12:54:26;17.30;71.40
42199;DHT22;27868;45.184;5.786;2023-03-21T12:57:22;17.50;72.30
42199;DHT22;27868;45.184;5.786;2023-03-21T13:00:20;17.70;73.00
42199;DHT22;27868;45.184;5.786;2023-03-21T13:06:05;17.90;72.10
42199;DHT22;27868;45.184;5.786;2023-03-21T13:08:51;18.10;71.10
42199;DHT22;27868;45.184;5.786;2023-03-21T13:11:37;18.30;71.90
42199;DHT22;27868;45.184;5.786;2023-03-21T13:14:27;18.40;71.40
42199;DHT22;27868;45.184;5.786;2023-03-21T13:17:18;18.60;68.90
42199;DHT22;27868;45.184;5.786;2023-03-21T13:20:09;18.80;66.70
42199;DHT22;27868;45.184;5.786;2023-03-21T13:22:56;18.90;67.70
42199;DHT22;27868;45.184;5.786;2023-03-21T13:25:41;19.00;69.10
42199;DHT22;27868;45.184;5.786;2023-03-21T13:28:28;19.10;65.80
42199;DHT22;27868;45.184;5.786;2023-03-21T13:34:01;19.20;66.80
42199;DHT22;27868;45.184;5.786;2023-03-21T13:36:47;19.30;67.30
42199;DHT22;27868;45.184;5.786;2023-03-21T13:39:32;19.50;67.20
42199;DHT22;27868;45.184;5.786;2023-03-21T13:42:21;19.70;65.20
42199;DHT22;27868;45.184;5.786;2023-03-21T13:45:08;19.80;64.70
42199;DHT22;27868;45.184;5.786;2023-03-21T13:47:55;19.90;61.30
42199;DHT22;27868;45.184;5.786;2023-03-21T13:56:19;19.90;60.00
42199;DHT22;27868;45.184;5.786;2023-03-21T13:59:04;19.90;59.90
42199;DHT22;27868;45.184;5.786;2023-03-21T14:04:41;19.90;62.30
42199;DHT22;27868;45.184;5.786;2023-03-21T14:07:27;19.90;62.00
42199;DHT22;27868;45.184;5.786;2023-03-21T14:13:06;20.00;62.60
42199;DHT22;27868;45.184;5.786;2023-03-21T14:15:54;20.10;63.70
42199;DHT22;27868;45.184;5.786;2023-03-21T14:18:44;20.10;62.60
42199;DHT22;27868;45.184;5.786;2023-03-21T14:21:30;20.00;59.80
42199;DHT22;27868;45.184;5.786;2023-03-21T14:24:16;19.90;56.20
42199;DHT22;27868;45.184;5.786;2023-03-21T14:27:01;19.80;60.20
42199;DHT22;27868;45.184;5.786;2023-03-21T14:29:47;19.90;61.40
42199;DHT22;27868;45.184;5.786;2023-03-21T14:32:34;20.10;59.50
42199;DHT22;27868;45.184;5.786;2023-03-21T14:35:19;20.10;60.90
42199;DHT22;27868;45.184;5.786;2023-03-21T14:38:04;20.10;60.80
42199;DHT22;27868;45.184;5.786;2023-03-21T14:40:54;20.20;60.40
42199;DHT22;27868;45.184;5.786;2023-03-21T14:43:40;20.20;61.10
42199;DHT22;27868;45.184;5.786;2023-03-21T14:46:25;20.20;59.80
42199;DHT22;27868;45.184;5.786;2023-03-21T14:49:17;20.10;58.50
42199;DHT22;27868;45.184;5.786;2023-03-21T14:52:24;20.00;58.80
42199;DHT22;27868;45.184;5.786;2023-03-21T14:55:11;19.90;58.70
42199;DHT22;27868;45.184;5.786;2023-03-21T14:57:57;19.90;58.20
42199;DHT22;27868;45.184;5.786;2023-03-21T15:00:42;19.90;58.50
42199;DHT22;27868;45.184;5.786;2023-03-21T15:03:26;19.90;58.40
42199;DHT22;27868;45.184;5.786;2023-03-21T15:06:11;19.90;60.50
42199;DHT22;27868;45.184;5.786;2023-03-21T15:08:57;20.00;60.10
42199;DHT22;27868;45.184;5.786;2023-03-21T15:11:47;20.00;61.40
42199;DHT22;27868;45.184;5.786;2023-03-21T15:14:32;20.00;61.30
42199;DHT22;27868;45.184;5.786;2023-03-21T15:17:17;20.00;61.60
42199;DHT22;27868;45.184;5.786;2023-03-21T15:20:02;20.00;61.40
42199;DHT22;27868;45.184;5.786;2023-03-21T15:22:50;20.00;61.40
42199;DHT22;27868;45.184;5.786;2023-03-21T15:25:35;20.00;61.10
42199;DHT22;27868;45.184;5.786;2023-03-21T15:28:20;20.00;60.80
42199;DHT22;27868;45.184;5.786;2023-03-21T15:31:15;20.00;61.40
42199;DHT22;27868;45.184;5.786;2023-03-21T15:34:00;20.00;60.70
42199;DHT22;27868;45.184;5.786;2023-03-21T15:36:45;20.00;60.10
42199;DHT22;27868;45.184;5.786;2023-03-21T15:39:30;20.00;60.60
42199;DHT22;27868;45.184;5.786;2023-03-21T15:42:25;20.00;60.60
42199;DHT22;27868;45.184;5.786;2023-03-21T15:48:05;19.90;60.80
42199;DHT22;27868;45.184;5.786;2023-03-21T15:50:52;19.90;61.10
42199;DHT22;27868;45.184;5.786;2023-03-21T15:53:39;19.90;61.60
42199;DHT22;27868;45.184;5.786;2023-03-21T15:56:25;19.90;61.00
42199;DHT22;27868;45.184;5.786;2023-03-21T15:59:17;19.90;61.10
42199;DHT22;27868;45.184;5.786;2023-03-21T16:02:03;19.80;60.90
42199;DHT22;27868;45.184;5.786;2023-03-21T16:04:57;19.80;60.80
42199;DHT22;27868;45.184;5.786;2023-03-21T16:07:46;19.80;61.70
42199;DHT22;27868;45.184;5.786;2023-03-21T16:10:32;19.80;61.70
42199;DHT22;27868;45.184;5.786;2023-03-21T16:13:17;19.70;61.80
42199;DHT22;27868;45.184;5.786;2023-03-21T16:16:01;19.70;61.80
42199;DHT22;27868;45.184;5.786;2023-03-21T16:18:46;19.70;62.30
42199;DHT22;27868;45.184;5.786;2023-03-21T16:21:31;19.70;62.40
42199;DHT22;27868;45.184;5.786;2023-03-21T16:24:17;19.60;62.00
42199;DHT22;27868;45.184;5.786;2023-03-21T16:27:01;19.60;62.70
42199;DHT22;27868;45.184;5.786;2023-03-21T16:29:46;19.60;62.90
42199;DHT22;27868;45.184;5.786;2023-03-21T16:32:30;19.60;63.50
42199;DHT22;27868;45.184;5.786;2023-03-21T16:35:16;19.50;63.70
42199;DHT22;27868;45.184;5.786;2023-03-21T16:38:01;19.50;63.80
42199;DHT22;27868;45.184;5.786;2023-03-21T16:40:46;19.50;63.50
42199;DHT22;27868;45.184;5.786;2023-03-21T16:43:31;19.40;63.50
42199;DHT22;27868;45.184;5.786;2023-03-21T16:46:16;19.40;63.80
42199;DHT22;27868;45.184;5.786;2023-03-21T16:49:01;19.40;63.60
42199;DHT22;27868;45.184;5.786;2023-03-21T16:51:46;19.30;63.80
42199;DHT22;27868;45.184;5.786;2023-03-21T16:54:31;19.20;64.00
42199;DHT22;27868;45.184;5.786;2023-03-21T16:57:21;19.20;64.00
42199;DHT22;27868;45.184;5.786;2023-03-21T17:00:17;19.20;64.40
42199;DHT22;27868;45.184;5.786;2023-03-21T17:03:07;19.20;65.00
42199;DHT22;27868;45.184;5.786;2023-03-21T17:05:55;19.10;65.60
42199;DHT22;27868;45.184;5.786;2023-03-21T17:08:39;19.10;66.10
42199;DHT22;27868;45.184;5.786;2023-03-21T17:11:26;19.00;66.10
42199;DHT22;27868;45.184;5.786;2023-03-21T17:14:14;19.00;66.40
42199;DHT22;27868;45.184;5.786;2023-03-21T17:17:01;18.90;66.60
42199;DHT22;27868;45.184;5.786;2023-03-21T17:19:46;18.90;66.80
42199;DHT22;27868;45.184;5.786;2023-03-21T17:22:30;18.80;66.90
42199;DHT22;27868;45.184;5.786;2023-03-21T17:25:15;18.80;66.90
42199;DHT22;27868;45.184;5.786;2023-03-21T17:28:00;18.70;67.20
42199;DHT22;27868;45.184;5.786;2023-03-21T17:30:44;18.60;67.20
42199;DHT22;27868;45.184;5.786;2023-03-21T17:33:29;18.50;67.30
42199;DHT22;27868;45.184;5.786;2023-03-21T17:36:14;18.40;67.50
42199;DHT22;27868;45.184;5.786;2023-03-21T17:38:59;18.40;67.50
42199;DHT22;27868;45.184;5.786;2023-03-21T17:41:44;18.30;67.70
42199;DHT22;27868;45.184;5.786;2023-03-21T17:44:28;18.20;67.90
42199;DHT22;27868;45.184;5.786;2023-03-21T17:47:13;18.10;68.30
42199;DHT22;27868;45.184;5.786;2023-03-21T17:49:58;18.10;68.50
42199;DHT22;27868;45.184;5.786;2023-03-21T17:52:42;18.00;68.70
42199;DHT22;27868;45.184;5.786;2023-03-21T17:55:27;18.00;69.00
42199;DHT22;27868;45.184;5.786;2023-03-21T17:58:12;17.90;69.10
42199;DHT22;27868;45.184;5.786;2023-03-21T18:00:57;17.90;69.30
42199;DHT22;27868;45.184;5.786;2023-03-21T18:03:41;17.80;69.40
42199;DHT22;27868;45.184;5.786;2023-03-21T18:06:26;17.80;69.60
42199;DHT22;27868;45.184;5.786;2023-03-21T18:09:10;17.70;69.70
42199;DHT22;27868;45.184;5.786;2023-03-21T18:11:55;17.60;69.70
42199;DHT22;27868;45.184;5.786;2023-03-21T18:14:39;17.60;69.80
42199;DHT22;27868;45.184;5.786;2023-03-21T18:17:24;17.50;69.70
42199;DHT22;27868;45.184;5.786;2023-03-21T18:20:13;17.40;69.70
42199;DHT22;27868;45.184;5.786;2023-03-21T18:22:58;17.40;69.70
42199;DHT22;27868;45.184;5.786;2023-03-21T18:25:42;17.40;69.90
42199;DHT22;27868;45.184;5.786;2023-03-21T18:28:27;17.30;70.00
42199;DHT22;27868;45.184;5.786;2023-03-21T18:31:16;17.20;70.10
42199;DHT22;27868;45.184;5.786;2023-03-21T18:34:01;17.20;70.30
42199;DHT22;27868;45.184;5.786;2023-03-21T18:36:46;17.10;70.40
42199;DHT22;27868;45.184;5.786;2023-03-21T18:39:31;17.10;70.50
42199;DHT22;27868;45.184;5.786;2023-03-21T18:42:16;17.00;70.60
42199;DHT22;27868;45.184;5.786;2023-03-21T18:45:01;17.00;70.50
42199;DHT22;27868;45.184;5.786;2023-03-21T18:47:47;16.90;70.60
42199;DHT22;27868;45.184;5.786;2023-03-21T18:50:31;16.90;70.60
42199;DHT22;27868;45.184;5.786;2023-03-21T18:53:16;16.80;70.80
42199;DHT22;27868;45.184;5.786;2023-03-21T18:56:00;16.80;70.80
42199;DHT22;27868;45.184;5.786;2023-03-21T18:58:45;16.80;70.70
42199;DHT22;27868;45.184;5.786;2023-03-21T19:01:29;16.70;70.80
42199;DHT22;27868;45.184;5.786;2023-03-21T19:04:15;16.70;71.00
42199;DHT22;27868;45.184;5.786;2023-03-21T19:06:59;16.60;71.10
42199;DHT22;27868;45.184;5.786;2023-03-21T19:09:44;16.50;71.40
42199;DHT22;27868;45.184;5.786;2023-03-21T19:12:30;16.50;71.60
42199;DHT22;27868;45.184;5.786;2023-03-21T19:15:14;16.40;71.60
42199;DHT22;27868;45.184;5.786;2023-03-21T19:18:01;16.40;71.80
42199;DHT22;27868;45.184;5.786;2023-03-21T19:20:46;16.40;72.00
42199;DHT22;27868;45.184;5.786;2023-03-21T19:23:31;16.30;72.10
42199;DHT22;27868;45.184;5.786;2023-03-21T19:26:15;16.20;72.10
42199;DHT22;27868;45.184;5.786;2023-03-21T19:29:00;16.20;72.20